createdAt,value
2023-04-28T00:01:12.668Z,76.04
2023-04-28T00:03:39.748Z,75.83
2023-04-28T00:06:06.461Z,75.63
2023-04-28T00:08:33.273Z,75.86
2023-04-28T00:11:00.676Z,75.94
2023-04-28T00:13:27.390Z,76.06
2023-04-28T00:15:54.369Z,76.13
2023-04-28T00:18:21.328Z,75.92
2023-04-28T00:20:48.397Z,76.69
2023-04-28T00:23:16.008Z,76.29
2023-04-28T00:25:42.523Z,75.89
2023-04-28T00:28:09.094Z,76.30
2023-04-28T00:30:35.677Z,75.60
2023-04-28T00:33:02.258Z,76.22
2023-04-28T00:35:28.737Z,75.64
2023-04-28T00:37:55.402Z,76.28
2023-04-28T00:40:22.190Z,76.03
2023-04-28T00:42:48.760Z,76.00
2023-04-28T00:45:15.246Z,76.38
2023-04-28T00:47:42.418Z,76.12
2023-04-28T00:50:10.634Z,75.93
2023-04-28T00:52:39.249Z,76.04
2023-04-28T00:55:07.790Z,76.40
2023-04-28T00:57:34.330Z,75.98
2023-04-28T01:00:01.106Z,76.01
2023-04-28T01:02:30.108Z,76.30
2023-04-28T01:04:59.116Z,76.23
2023-04-28T01:07:25.690Z,76.74
2023-04-28T01:09:52.345Z,76.30
2023-04-28T01:12:23.985Z,76.29
2023-04-28T01:14:53.018Z,76.61
2023-04-28T01:17:19.753Z,76.46
2023-04-28T01:19:46.744Z,76.60
2023-04-28T01:22:16.558Z,76.40
2023-04-28T01:24:44.018Z,76.29
2023-04-28T01:27:12.545Z,76.78
2023-04-28T01:29:41.011Z,76.40
2023-04-28T01:32:07.556Z,77.10
2023-04-28T01:34:34.406Z,77.32
2023-04-28T01:37:01.255Z,77.72
2023-04-28T01:39:27.920Z,77.36
2023-04-28T01:41:55.960Z,77.54
2023-04-28T01:44:22.400Z,78.21
2023-04-28T01:46:48.950Z,77.69
2023-04-28T01:49:15.587Z,79.12
2023-04-28T01:51:42.889Z,79.51
2023-04-28T01:54:09.987Z,79.74
2023-04-28T01:56:36.734Z,79.29
2023-04-28T01:59:03.816Z,79.29
2023-04-28T02:01:30.846Z,79.16
2023-04-28T02:03:57.723Z,78.65
2023-04-28T02:06:26.808Z,79.49
2023-04-28T02:08:53.576Z,79.92
2023-04-28T02:11:20.120Z,79.21
2023-04-28T02:13:47.114Z,79.29
2023-04-28T02:16:13.728Z,79.04
2023-04-28T02:18:42.266Z,79.27
2023-04-28T02:21:13.005Z,78.68
2023-04-28T02:23:40.713Z,79.64
2023-04-28T02:26:07.410Z,78.92
2023-04-28T02:28:34.099Z,78.83
2023-04-28T02:31:08.802Z,78.83
2023-04-28T02:33:36.627Z,79.13
2023-04-28T02:36:04.865Z,79.03
2023-04-28T02:38:31.948Z,78.85
2023-04-28T02:41:04.698Z,79.13
2023-04-28T02:43:32.689Z,78.79
2023-04-28T02:45:59.464Z,78.32
2023-04-28T02:48:26.633Z,78.28
2023-04-28T02:50:53.462Z,78.01
2023-04-28T02:53:21.161Z,79.62
2023-04-28T02:55:48.694Z,80.25
2023-04-28T02:58:17.797Z,79.99
2023-04-28T03:00:44.742Z,79.58
2023-04-28T03:03:11.771Z,80.38
2023-04-28T03:05:38.584Z,80.66
2023-04-28T03:08:05.585Z,81.50
2023-04-28T03:10:32.103Z,81.33
2023-04-28T03:12:59.825Z,80.37
2023-04-28T03:15:27.077Z,81.19
2023-04-28T03:17:53.785Z,81.00
2023-04-28T03:20:20.474Z,80.91
2023-04-28T03:22:47.073Z,80.56
2023-04-28T03:25:13.554Z,80.35
2023-04-28T03:27:47.574Z,80.18
2023-04-28T03:30:14.204Z,80.32
2023-04-28T03:32:40.873Z,80.61
2023-04-28T03:35:08.312Z,80.50
2023-04-28T03:37:34.952Z,80.42
2023-04-28T03:40:03.899Z,80.52
2023-04-28T03:42:42.150Z,80.09
2023-04-28T03:45:11.106Z,79.82
2023-04-28T03:47:37.820Z,80.05
2023-04-28T03:50:04.676Z,81.59
2023-04-28T03:52:31.697Z,80.69
2023-04-28T03:54:58.311Z,80.70
2023-04-28T03:57:24.996Z,81.42
2023-04-28T03:59:52.065Z,80.39
2023-04-28T04:02:18.868Z,81.01
2023-04-28T04:04:45.583Z,80.49
2023-04-28T04:07:12.328Z,80.34
2023-04-28T04:09:39.901Z,81.02
2023-04-28T04:12:06.581Z,80.38
2023-04-28T04:14:33.408Z,80.13
2023-04-28T04:17:00.024Z,79.69
2023-04-28T04:19:28.059Z,80.01
2023-04-28T04:21:55.450Z,80.27
2023-04-28T04:24:22.246Z,80.29
2023-04-28T04:26:49.026Z,80.69
2023-04-28T04:29:26.911Z,80.48
2023-04-28T04:31:53.660Z,80.20
2023-04-28T04:34:20.079Z,79.60
2023-04-28T04:36:46.820Z,80.84
2023-04-28T04:39:14.182Z,80.67
2023-04-28T04:41:42.462Z,80.85
2023-04-28T04:44:27.409Z,81.33
2023-04-28T04:46:56.222Z,81.16
2023-04-28T04:49:22.797Z,81.34
2023-04-28T04:51:50.486Z,81.82
2023-04-28T04:54:17.476Z,81.51
2023-04-28T04:56:44.688Z,81.32
2023-04-28T04:59:13.589Z,81.84
2023-04-28T05:01:46.968Z,82.72
2023-04-28T05:04:13.561Z,82.16
2023-04-28T05:06:40.698Z,81.76
2023-04-28T05:09:07.342Z,82.38
2023-04-28T05:11:33.960Z,81.98
2023-04-28T05:14:00.521Z,81.11
2023-04-28T05:16:27.129Z,81.08
2023-04-28T05:19:00.578Z,81.07
2023-04-28T05:21:27.354Z,81.80
2023-04-28T05:23:53.875Z,81.60
2023-04-28T05:26:20.769Z,80.70
2023-04-28T05:28:47.349Z,79.81
2023-04-28T05:31:14.518Z,80.06
2023-04-28T05:33:41.057Z,81.44
2023-04-28T05:36:08.338Z,80.89
2023-04-28T05:38:35.189Z,81.81
2023-04-28T05:41:02.468Z,83.43
2023-04-28T05:43:29.292Z,85.22
2023-04-28T05:45:56.118Z,85.12
2023-04-28T05:48:23.396Z,85.93
2023-04-28T05:50:50.085Z,86.08
2023-04-28T05:53:16.667Z,86.04
2023-04-28T05:55:43.358Z,86.32
2023-04-28T05:58:10.307Z,89.45
2023-04-28T06:00:37.784Z,89.52
2023-04-28T06:03:05.534Z,89.26
2023-04-28T06:05:32.874Z,89.03
2023-04-28T06:07:59.840Z,89.28
2023-04-28T06:10:26.510Z,91.60
2023-04-28T06:12:53.049Z,90.44
2023-04-28T06:15:19.496Z,89.26
2023-04-28T06:17:48.408Z,91.41
2023-04-28T06:20:16.525Z,92.27
2023-04-28T06:22:43.545Z,91.94
2023-04-28T06:25:10.130Z,91.47
2023-04-28T06:27:45.175Z,92.47
2023-04-28T06:30:19.287Z,93.02
2023-04-28T06:32:46.244Z,93.32
2023-04-28T06:35:12.953Z,92.79
2023-04-28T06:37:39.518Z,91.64
2023-04-28T06:40:06.349Z,91.24
2023-04-28T06:42:36.807Z,92.45
2023-04-28T06:45:11.105Z,91.11
2023-04-28T06:47:38.686Z,91.15
2023-04-28T06:50:08.581Z,94.39
2023-04-28T06:52:39.295Z,96.27
2023-04-28T06:55:09.726Z,97.55
2023-04-28T06:57:37.841Z,95.84
2023-04-28T07:00:05.032Z,94.79
2023-04-28T07:02:31.761Z,93.87
2023-04-28T07:04:58.367Z,97.42
2023-04-28T07:07:24.783Z,96.17
2023-04-28T07:09:53.244Z,95.39
2023-04-28T07:12:21.194Z,96.15
2023-04-28T07:14:47.697Z,95.67
2023-04-28T07:17:14.187Z,95.23
2023-04-28T07:19:40.861Z,94.75
2023-04-28T07:22:07.364Z,93.65
2023-04-28T07:24:33.892Z,94.41
2023-04-28T07:27:01.351Z,94.17
2023-04-28T07:29:33.903Z,93.36
2023-04-28T07:32:06.832Z,93.47
2023-04-28T07:34:35.769Z,95.70
2023-04-28T07:37:03.618Z,96.89
2023-04-28T07:39:34.801Z,95.68
2023-04-28T07:42:03.202Z,95.27
2023-04-28T07:44:30.217Z,95.84
2023-04-28T07:46:57.424Z,96.95
2023-04-28T07:49:24.028Z,97.18
2023-04-28T07:51:53.548Z,97.17
2023-04-28T07:54:20.317Z,97.53
2023-04-28T07:56:47.099Z,98.57
2023-04-28T07:59:14.230Z,98.17
2023-04-28T08:01:41.324Z,98.20
2023-04-28T08:04:08.178Z,97.65
2023-04-28T08:06:36.294Z,96.72
2023-04-28T08:09:03.910Z,97.17
2023-04-28T08:11:30.552Z,97.52
2023-04-28T08:14:01.249Z,98.70
2023-04-28T08:16:28.488Z,98.84
2023-04-28T08:18:55.226Z,100.00
2023-04-28T08:21:21.802Z,100.00
2023-04-28T08:23:48.240Z,100.00
2023-04-28T08:26:14.795Z,100.00
2023-04-28T08:28:41.289Z,100.00
2023-04-28T08:31:07.930Z,100.00
2023-04-28T08:33:34.493Z,100.00
2023-04-28T08:36:01.023Z,100.00
2023-04-28T08:38:27.612Z,100.00
2023-04-28T08:40:54.242Z,100.00
2023-04-28T08:43:21.549Z,100.00
2023-04-28T08:45:53.821Z,100.00
2023-04-28T08:48:22.287Z,100.00
2023-04-28T08:50:51.934Z,100.00
2023-04-28T08:53:26.039Z,100.00
2023-04-28T08:55:55.510Z,100.00
2023-04-28T08:58:24.095Z,100.00
2023-04-28T09:00:52.193Z,100.00
2023-04-28T09:03:19.112Z,100.00
2023-04-28T09:05:46.146Z,100.00
2023-04-28T09:08:12.751Z,100.00
2023-04-28T09:10:39.338Z,100.00
2023-04-28T09:13:05.887Z,100.00
2023-04-28T09:15:41.455Z,100.00
2023-04-28T09:18:08.846Z,100.00
2023-04-28T09:20:36.512Z,100.00
2023-04-28T09:23:19.129Z,100.00
2023-04-28T09:26:00.887Z,100.00
2023-04-28T09:28:29.526Z,100.00
2023-04-28T09:30:56.279Z,100.00
2023-04-28T09:33:23.305Z,100.00
2023-04-28T09:35:50.120Z,100.00
2023-04-28T09:38:17.408Z,100.00
2023-04-28T09:41:00.514Z,100.00
2023-04-28T09:43:32.934Z,100.00
2023-04-28T09:46:02.842Z,100.00
2023-04-28T09:48:37.995Z,100.00
2023-04-28T09:51:06.516Z,100.00
2023-04-28T09:53:34.524Z,100.00
2023-04-28T09:56:05.105Z,100.00
2023-04-28T09:58:34.307Z,100.00
2023-04-28T10:01:01.802Z,100.00
2023-04-28T10:03:30.601Z,100.00
2023-04-28T10:05:58.955Z,100.00
2023-04-28T10:08:27.497Z,100.00
2023-04-28T10:10:55.424Z,100.00
2023-04-28T10:13:23.274Z,100.00
2023-04-28T10:15:55.424Z,100.00
2023-04-28T10:18:25.787Z,100.00
2023-04-28T10:21:00.784Z,100.00
2023-04-28T10:23:43.604Z,100.00
2023-04-28T10:26:12.676Z,100.00
2023-04-28T10:28:46.545Z,100.00
2023-04-28T10:31:15.301Z,100.00
2023-04-28T10:33:42.864Z,100.00
2023-04-28T10:36:10.003Z,100.00
2023-04-28T10:38:38.002Z,100.00
2023-04-28T10:41:04.576Z,100.00
2023-04-28T10:43:31.869Z,100.00
2023-04-28T10:46:01.729Z,100.00
2023-04-28T10:48:34.492Z,100.00
2023-04-28T10:51:07.769Z,100.00
2023-04-28T10:53:47.477Z,100.00
2023-04-28T10:56:25.344Z,100.00
2023-04-28T10:58:53.451Z,100.00
2023-04-28T11:01:19.926Z,100.00
2023-04-28T11:03:50.167Z,100.00
2023-04-28T11:06:26.725Z,100.00
2023-04-28T11:08:57.965Z,100.00
2023-04-28T11:11:29.222Z,100.00
2023-04-28T11:14:17.351Z,100.00
2023-04-28T11:16:54.542Z,100.00
2023-04-28T11:19:23.247Z,100.00
2023-04-28T11:21:50.414Z,100.00
2023-04-28T11:24:17.303Z,100.00
2023-04-28T11:26:44.562Z,100.00
2023-04-28T11:29:12.452Z,100.00
2023-04-28T11:31:38.926Z,100.00
2023-04-28T11:34:06.701Z,100.00
2023-04-28T11:36:35.447Z,100.00
2023-04-28T11:39:08.116Z,100.00
2023-04-28T11:41:36.393Z,100.00
2023-04-28T11:44:11.884Z,100.00
2023-04-28T11:47:05.317Z,100.00
2023-04-28T11:49:42.743Z,100.00
2023-04-28T11:52:09.781Z,100.00
2023-04-28T11:54:37.119Z,99.57
2023-04-28T11:57:04.890Z,100.00
2023-04-28T11:59:34.083Z,100.00
2023-04-28T12:02:03.288Z,100.00
2023-04-28T12:04:36.612Z,98.68
2023-04-28T12:07:13.282Z,100.00
2023-04-28T12:09:45.088Z,100.00
2023-04-28T12:12:14.611Z,100.00
2023-04-28T12:14:56.207Z,100.00
2023-04-28T12:17:30.933Z,100.00
2023-04-28T12:19:59.326Z,100.00
2023-04-28T12:22:26.082Z,100.00
2023-04-28T12:25:12.449Z,100.00
2023-04-28T12:27:40.777Z,100.00
2023-04-28T12:30:19.594Z,100.00
2023-04-28T12:32:46.496Z,100.00
2023-04-28T12:35:13.010Z,100.00
2023-04-28T12:37:39.998Z,100.00
2023-04-28T12:40:07.427Z,100.00
2023-04-28T12:42:34.450Z,100.00
2023-04-28T12:45:02.355Z,100.00
2023-04-28T12:47:28.907Z,100.00
2023-04-28T12:49:55.249Z,100.00
2023-04-28T12:52:22.650Z,100.00
2023-04-28T12:54:49.474Z,100.00
2023-04-28T12:57:19.789Z,100.00
2023-04-28T12:59:47.981Z,100.00
2023-04-28T13:02:15.386Z,100.00
2023-04-28T13:04:52.161Z,100.00
2023-04-28T13:07:19.176Z,100.00
2023-04-28T13:09:47.261Z,100.00
2023-04-28T13:12:14.739Z,100.00
2023-04-28T13:14:41.955Z,100.00
2023-04-28T13:17:09.155Z,100.00
2023-04-28T13:19:35.710Z,100.00
2023-04-28T13:22:05.023Z,100.00
2023-04-28T13:24:33.426Z,100.00
2023-04-28T13:27:00.499Z,100.00
2023-04-28T13:29:27.106Z,100.00
2023-04-28T13:31:53.673Z,100.00
2023-04-28T13:34:20.356Z,100.00
2023-04-28T13:36:48.279Z,100.00
2023-04-28T13:39:14.984Z,100.00
2023-04-28T13:41:42.243Z,100.00
2023-04-28T13:44:09.482Z,100.00
2023-04-28T13:46:36.059Z,100.00
2023-04-28T13:49:02.526Z,100.00
2023-04-28T13:51:29.044Z,100.00
2023-04-28T13:53:55.479Z,100.00
2023-04-28T13:56:22.007Z,100.00
2023-04-28T13:58:49.089Z,100.00
2023-04-28T14:01:16.043Z,100.00
2023-04-28T14:03:44.144Z,100.00
2023-04-28T14:06:11.172Z,100.00
2023-04-28T14:08:37.677Z,100.00
2023-04-28T14:11:04.171Z,100.00
2023-04-28T14:13:30.835Z,100.00
2023-04-28T14:15:59.641Z,100.00
2023-04-28T14:18:27.164Z,100.00
2023-04-28T14:20:54.513Z,100.00
2023-04-28T14:23:24.401Z,100.00
2023-04-28T14:25:56.030Z,100.00
2023-04-28T14:28:22.914Z,100.00
2023-04-28T14:30:50.119Z,100.00
2023-04-28T14:33:16.727Z,100.00
2023-04-28T14:35:43.186Z,100.00
2023-04-28T14:38:09.769Z,100.00
2023-04-28T14:40:36.187Z,100.00
2023-04-28T14:43:02.638Z,100.00
2023-04-28T14:45:29.188Z,100.00
2023-04-28T14:47:56.013Z,100.00
2023-04-28T14:50:22.697Z,100.00
2023-04-28T14:52:49.592Z,100.00
2023-04-28T14:55:16.255Z,100.00
2023-04-28T14:57:42.765Z,100.00
2023-04-28T15:00:09.431Z,100.00
2023-04-28T15:02:36.236Z,100.00
2023-04-28T15:05:03.314Z,100.00
2023-04-28T15:07:31.921Z,100.00
2023-04-28T15:09:59.453Z,100.00
2023-04-28T15:12:26.295Z,100.00
2023-04-28T15:14:53.809Z,100.00
2023-04-28T15:17:22.973Z,100.00
2023-04-28T15:19:49.475Z,100.00
2023-04-28T15:22:15.923Z,100.00
2023-04-28T15:24:42.757Z,100.00
2023-04-28T15:27:09.524Z,100.00
2023-04-28T15:29:36.043Z,100.00
2023-04-28T15:32:02.633Z,100.00
2023-04-28T15:34:29.013Z,100.00
2023-04-28T15:36:55.577Z,100.00
2023-04-28T15:39:22.036Z,100.00
2023-04-28T15:41:48.502Z,100.00
2023-04-28T15:44:15.348Z,100.00
2023-04-28T15:46:41.977Z,100.00
2023-04-28T15:49:08.652Z,100.00
2023-04-28T15:51:35.143Z,100.00
2023-04-28T15:54:01.653Z,100.00
2023-04-28T15:56:28.277Z,100.00
2023-04-28T15:58:54.813Z,100.00
2023-04-28T16:01:22.036Z,100.00
2023-04-28T16:03:48.853Z,100.00
2023-04-28T16:06:15.547Z,100.00
2023-04-28T16:08:42.183Z,100.00
2023-04-28T16:11:10.948Z,100.00
2023-04-28T16:13:37.536Z,100.00
2023-04-28T16:16:04.307Z,100.00
2023-04-28T16:18:31.083Z,100.00
2023-04-28T16:20:57.593Z,100.00
2023-04-28T16:23:24.085Z,100.00
2023-04-28T16:25:51.054Z,100.00
2023-04-28T16:28:17.696Z,100.00
2023-04-28T16:30:44.274Z,100.00
2023-04-28T16:33:10.755Z,100.00
2023-04-28T16:35:37.291Z,100.00
2023-04-28T16:38:03.927Z,100.00
2023-04-28T16:40:30.669Z,100.00
2023-04-28T16:42:57.529Z,100.00
2023-04-28T16:45:24.123Z,100.00
2023-04-28T16:47:50.640Z,100.00
2023-04-28T16:50:17.713Z,100.00
2023-04-28T16:52:44.866Z,100.00
2023-04-28T16:55:11.547Z,100.00
2023-04-28T16:57:37.934Z,100.00
2023-04-28T17:00:06.221Z,100.00
2023-04-28T17:02:33.344Z,100.00
2023-04-28T17:05:00.289Z,100.00
2023-04-28T17:07:27.653Z,100.00
2023-04-28T17:09:54.375Z,100.00
2023-04-28T17:12:21.075Z,100.00
2023-04-28T17:14:47.808Z,100.00
2023-04-28T17:17:14.296Z,100.00
2023-04-28T17:19:42.092Z,100.00
2023-04-28T17:22:08.636Z,100.00
2023-04-28T17:24:35.229Z,100.00
2023-04-28T17:27:01.820Z,100.00
2023-04-28T17:29:28.212Z,100.00
2023-04-28T17:31:54.940Z,100.00
2023-04-28T17:34:21.547Z,100.00
2023-04-28T17:36:47.941Z,100.00
2023-04-28T17:39:16.413Z,100.00
2023-04-28T17:41:43.616Z,100.00
2023-04-28T17:44:10.295Z,100.00
2023-04-28T17:46:38.431Z,100.00
2023-04-28T17:49:05.433Z,100.00
2023-04-28T17:51:32.834Z,100.00
2023-04-28T17:53:59.343Z,100.00
2023-04-28T17:56:26.342Z,100.00
2023-04-28T17:58:52.981Z,100.00
2023-04-28T18:01:19.761Z,100.00
2023-04-28T18:03:46.666Z,100.00
2023-04-28T18:06:13.802Z,100.00
2023-04-28T18:08:40.972Z,100.00
2023-04-28T18:11:09.893Z,100.00
2023-04-28T18:13:36.849Z,100.00
2023-04-28T18:16:05.071Z,100.00
2023-04-28T18:18:35.395Z,100.00
2023-04-28T18:21:03.222Z,100.00
2023-04-28T18:23:30.634Z,100.00
2023-04-28T18:25:57.163Z,100.00
2023-04-28T18:28:23.817Z,100.00
2023-04-28T18:30:50.668Z,100.00
2023-04-28T18:33:19.962Z,100.00
2023-04-28T18:35:48.759Z,100.00
2023-04-28T18:38:15.302Z,100.00
2023-04-28T18:40:41.911Z,100.00
2023-04-28T18:43:10.377Z,100.00
2023-04-28T18:45:40.966Z,100.00
2023-04-28T18:48:08.624Z,100.00
2023-04-28T18:50:36.191Z,100.00
2023-04-28T18:53:04.255Z,100.00
2023-04-28T18:55:33.434Z,100.00
2023-04-28T18:58:01.911Z,100.00
2023-04-28T19:00:28.693Z,100.00
2023-04-28T19:02:55.140Z,100.00
2023-04-28T19:05:22.363Z,100.00
2023-04-28T19:07:48.942Z,100.00
2023-04-28T19:10:15.684Z,100.00
2023-04-28T19:12:42.143Z,100.00
2023-04-28T19:15:08.626Z,100.00
2023-04-28T19:17:35.229Z,100.00
2023-04-28T19:20:02.413Z,100.00
2023-04-28T19:22:35.067Z,100.00
2023-04-28T19:25:02.415Z,100.00
2023-04-28T19:27:38.061Z,100.00
2023-04-28T19:30:07.292Z,100.00
2023-04-28T19:32:34.175Z,100.00
2023-04-28T19:35:02.750Z,100.00
2023-04-28T19:37:29.733Z,100.00
2023-04-28T19:39:56.394Z,100.00
2023-04-28T19:42:22.866Z,100.00
2023-04-28T19:44:55.165Z,100.00
2023-04-28T19:47:25.296Z,100.00
2023-04-28T19:49:52.798Z,100.00
2023-04-28T19:52:23.446Z,100.00
2023-04-28T19:54:50.510Z,100.00
2023-04-28T19:57:17.636Z,100.00
2023-04-28T19:59:45.153Z,100.00
2023-04-28T20:02:11.661Z,100.00
2023-04-28T20:04:38.249Z,100.00
2023-04-28T20:07:05.804Z,100.00
2023-04-28T20:09:36.577Z,100.00
2023-04-28T20:12:05.408Z,100.00
2023-04-28T20:14:32.545Z,100.00
2023-04-28T20:17:01.629Z,100.00
2023-04-28T20:19:28.196Z,100.00
2023-04-28T20:21:54.657Z,100.00
2023-04-28T20:24:21.221Z,100.00
2023-04-28T20:26:49.350Z,100.00
2023-04-28T20:29:16.131Z,100.00
2023-04-28T20:31:42.770Z,100.00
2023-04-28T20:34:09.339Z,100.00
2023-04-28T20:36:35.963Z,100.00
2023-04-28T20:39:02.435Z,100.00
2023-04-28T20:41:28.831Z,100.00
2023-04-28T20:43:55.391Z,100.00
2023-04-28T20:46:21.904Z,100.00
2023-04-28T20:48:48.458Z,100.00
2023-04-28T20:51:14.908Z,100.00
2023-04-28T20:53:42.926Z,100.00
2023-04-28T20:56:09.455Z,100.00
2023-04-28T20:58:35.831Z,100.00
2023-04-28T21:01:02.475Z,100.00
2023-04-28T21:03:30.502Z,100.00
2023-04-28T21:05:57.145Z,100.00
2023-04-28T21:08:23.579Z,100.00
2023-04-28T21:10:50.110Z,100.00
2023-04-28T21:13:16.499Z,100.00
2023-04-28T21:15:43.082Z,100.00
2023-04-28T21:18:09.721Z,100.00
2023-04-28T21:20:36.408Z,100.00
2023-04-28T21:23:02.955Z,100.00
2023-04-28T21:25:30.067Z,100.00
2023-04-28T21:27:57.010Z,100.00
2023-04-28T21:30:24.050Z,100.00
2023-04-28T21:32:50.642Z,100.00
2023-04-28T21:35:17.188Z,100.00
2023-04-28T21:37:43.588Z,100.00
2023-04-28T21:40:10.380Z,100.00
2023-04-28T21:42:36.930Z,100.00
2023-04-28T21:45:03.536Z,100.00
2023-04-28T21:47:30.110Z,100.00
2023-04-28T21:49:56.629Z,100.00
2023-04-28T21:52:23.013Z,100.00
2023-04-28T21:54:49.506Z,100.00
2023-04-28T21:57:15.902Z,100.00
2023-04-28T21:59:42.446Z,100.00
2023-04-28T22:17:50.731Z,100.00
2023-04-28T22:20:17.374Z,100.00
2023-04-28T22:22:43.859Z,100.00
2023-04-28T22:25:10.319Z,100.00
2023-04-28T22:27:36.801Z,100.00
2023-04-28T22:30:03.973Z,100.00
2023-04-28T22:32:30.556Z,100.00
2023-04-28T22:34:56.978Z,100.00
2023-04-28T22:37:23.558Z,100.00
2023-04-28T22:39:50.149Z,100.00
2023-04-28T22:42:16.858Z,100.00
2023-04-28T22:44:43.595Z,100.00
2023-04-28T22:47:10.463Z,100.00
2023-04-28T22:49:37.082Z,100.00
2023-04-28T22:52:04.077Z,100.00
2023-04-28T22:54:31.891Z,100.00
2023-04-28T22:56:59.258Z,100.00
2023-04-28T22:59:26.495Z,100.00
2023-04-28T23:01:54.758Z,100.00
2023-04-28T23:04:21.742Z,100.00
2023-04-28T23:06:48.624Z,100.00
2023-04-28T23:09:15.219Z,100.00
2023-04-28T23:11:41.805Z,100.00
2023-04-28T23:14:08.317Z,100.00
2023-04-28T23:16:34.815Z,100.00
2023-04-28T23:19:02.022Z,100.00
2023-04-28T23:21:28.802Z,100.00
2023-04-28T23:23:55.385Z,100.00
2023-04-28T23:26:22.074Z,100.00
2023-04-28T23:28:48.637Z,100.00
2023-04-28T23:31:15.154Z,100.00
2023-04-28T23:33:41.788Z,100.00
2023-04-28T23:36:09.085Z,100.00
2023-04-28T23:38:35.652Z,100.00
2023-04-28T23:41:02.176Z,100.00
2023-04-28T23:43:29.023Z,100.00
2023-04-28T23:45:55.601Z,100.00
2023-04-28T23:48:22.510Z,100.00
2023-04-28T23:50:49.238Z,100.00
2023-04-28T23:53:15.840Z,100.00
2023-04-28T23:55:42.252Z,100.00
2023-04-28T23:58:09.144Z,100.00
